Time;durP1;ratioP1;P1;durP2;ratioP2;P2;SDS_P1;SDS_P2;PMS_P1;PMS_P2;Temp;Humidity;BMP_temperature;BMP_pressure;BME280_temperature;BME280_humidity;BME280_pressure;Samples;Min_cycle;Max_cycle;Signal;HPM_P1;HPM_P2
2024/01/01 00:00:41;;;;;;;59.40;41.47;;;;;;;4.85;100.00;94966.34;7424792;19;20438;-91
2024/01/01 00:03:22;;;;;;;62.97;45.30;;;;;;;5.79;100.00;95103.34;7424996;19;20420;-90
2024/01/01 00:06:03;;;;;;;55.80;43.63;;;;;;;5.69;100.00;95067.13;7427127;19;20389;-89
2024/01/01 00:08:44;;;;;;;46.20;38.07;;;;;;;5.09;100.00;95003.25;7417043;19;20393;-90
2024/01/01 00:11:26;;;;;;;57.60;37.83;;;;;;;5.07;100.00;94997.56;7403063;19;20751;-91
2024/01/01 00:14:07;;;;;;;52.60;39.30;;;;;;;5.14;100.00;95023.16;7405163;19;20427;-90
2024/01/01 00:16:48;;;;;;;52.10;36.80;;;;;;;4.77;100.00;94960.06;7404998;19;20372;-91
2024/01/01 00:19:29;;;;;;;34.60;28.00;;;;;;;4.35;100.00;94931.84;7404746;19;20388;-89
2024/01/01 00:22:10;;;;;;;52.03;37.60;;;;;;;4.86;100.00;95000.91;7421172;19;20436;-89
2024/01/01 00:24:51;;;;;;;75.83;52.93;;;;;;;4.77;100.00;95024.25;7402320;19;20404;-90
2024/01/01 00:27:34;;;;;;;40.67;30.67;;;;;;;4.00;100.00;94928.19;7403547;19;20665;-90
2024/01/01 00:30:15;;;;;;;20.13;15.90;;;;;;;4.40;100.00;94975.91;7401320;19;20411;-90
2024/01/01 00:32:56;;;;;;;13.40;11.30;;;;;;;4.50;100.00;94965.31;7401478;19;20754;-91
2024/01/01 00:35:37;;;;;;;15.50;9.63;;;;;;;4.57;100.00;94980.50;7403849;19;20404;-91
2024/01/01 00:38:18;;;;;;;9.83;8.00;;;;;;;4.92;100.00;95010.16;7403626;19;20381;-91
2024/01/01 00:40:59;;;;;;;16.23;12.67;;;;;;;5.38;100.00;95073.06;7403021;19;20849;-91
2024/01/01 00:43:42;;;;;;;26.67;19.70;;;;;;;4.74;100.00;94971.00;7402649;19;20369;-91
2024/01/01 00:46:24;;;;;;;26.93;20.20;;;;;;;4.98;100.00;94988.16;7402639;19;20841;-90
2024/01/01 00:49:05;;;;;;;23.30;19.43;;;;;;;5.53;100.00;95078.97;7401884;19;20386;-91
2024/01/01 00:51:46;;;;;;;14.80;12.77;;;;;;;5.02;100.00;95013.28;7402446;19;20917;-90
2024/01/01 00:54:28;;;;;;;10.30;7.63;;;;;;;5.37;100.00;95055.16;7405184;19;20399;-91
2024/01/01 00:57:09;;;;;;;10.27;9.10;;;;;;;4.42;100.00;94916.66;7402898;19;20679;-90
2024/01/01 00:59:50;;;;;;;9.00;7.63;;;;;;;4.87;100.00;94973.84;7402970;19;20384;-90
2024/01/01 01:02:31;;;;;;;9.53;6.50;;;;;;;4.45;100.00;94916.81;7401145;19;20472;-90
2024/01/01 01:05:12;;;;;;;8.30;7.50;;;;;;;4.48;100.00;94924.03;7401844;19;20364;-90
2024/01/01 01:07:53;;;;;;;16.73;11.60;;;;;;;4.33;100.00;94901.00;7401720;19;20486;-91
2024/01/01 01:10:34;;;;;;;12.03;10.23;;;;;;;4.93;100.00;94959.69;7399770;19;20409;-91
2024/01/01 01:13:16;;;;;;;11.20;8.63;;;;;;;4.66;100.00;94939.78;7399791;19;20423;-90
2024/01/01 01:15:57;;;;;;;14.57;9.27;;;;;;;4.28;100.00;94877.75;7401528;19;20392;-90
2024/01/01 01:18:38;;;;;;;19.50;12.80;;;;;;;4.92;100.00;94984.16;7401116;19;20377;-90
2024/01/01 01:21:22;;;;;;;10.40;8.00;;;;;;;4.73;100.00;94960.91;7401129;19;20389;-91
2024/01/01 01:24:04;;;;;;;10.77;7.63;;;;;;;4.71;100.00;94970.84;7398538;19;20400;-91
2024/01/01 01:26:45;;;;;;;13.20;6.27;;;;;;;4.19;100.00;94902.84;7401710;19;20463;-91
2024/01/01 01:29:26;;;;;;;8.57;6.13;;;;;;;4.28;100.00;94897.75;7400702;19;20392;-90
2024/01/01 01:32:09;;;;;;;10.63;6.73;;;;;;;4.82;100.00;94989.56;7399929;19;20412;-89
2024/01/01 01:34:50;;;;;;;10.23;8.00;;;;;;;4.61;100.00;94986.63;7401301;19;20397;-91
2024/01/01 01:37:31;;;;;;;9.70;7.33;;;;;;;4.93;100.00;95024.69;7401493;19;20384;-91
2024/01/01 01:40:12;;;;;;;10.87;7.77;;;;;;;4.10;100.00;94933.16;7401445;19;20384;-90
2024/01/01 01:42:53;;;;;;;8.97;8.07;;;;;;;3.97;100.00;94902.81;7399252;19;20436;-90
2024/01/01 01:45:34;;;;;;;9.80;6.30;;;;;;;4.24;100.00;94936.53;7400811;19;20381;-90
2024/01/01 01:48:17;;;;;;;10.80;8.13;;;;;;;4.84;100.00;95061.00;7400950;19;20403;-90
2024/01/01 01:50:59;;;;;;;10.53;7.30;;;;;;;4.54;100.00;95027.84;7400325;19;20884;-90
2024/01/01 01:53:41;;;;;;;8.67;6.93;;;;;;;3.73;100.00;94914.16;7400241;19;20373;-90
2024/01/01 01:56:22;;;;;;;8.43;6.20;;;;;;;4.16;100.00;94989.88;7400635;19;20365;-90
2024/01/01 01:59:03;;;;;;;7.10;6.20;;;;;;;4.20;100.00;94932.94;7400558;19;20699;-90
2024/01/01 02:01:44;;;;;;;6.40;5.27;;;;;;;4.93;100.00;95043.66;7399756;19;20897;-90
2024/01/01 02:04:25;;;;;;;10.57;6.90;;;;;;;3.97;100.00;94889.84;7401919;19;20414;-90
2024/01/01 02:07:07;;;;;;;7.97;6.90;;;;;;;4.02;100.00;94895.69;7399668;19;20384;-90
2024/01/01 02:09:48;;;;;;;17.03;7.83;;;;;;;4.26;100.00;94944.78;7399635;19;20676;-90
2024/01/01 02:12:29;;;;;;;9.00;7.13;;;;;;;4.05;100.00;94902.88;7398120;19;20397;-90
2024/01/01 02:15:10;;;;;;;9.83;7.03;;;;;;;5.28;100.00;95094.09;7399675;19;20389;-90
2024/01/01 02:17:51;;;;;;;11.10;7.50;;;;;;;4.26;100.00;94951.81;7399799;19;20389;-91
2024/01/01 02:20:32;;;;;;;10.00;7.20;;;;;;;4.22;100.00;94932.66;7398831;19;20886;-90
2024/01/01 02:23:16;;;;;;;8.37;6.53;;;;;;;3.84;100.00;94881.00;7396833;19;20440;-90
2024/01/01 02:25:57;;;;;;;11.90;8.37;;;;;;;4.23;100.00;94936.78;7398521;19;20400;-90
2024/01/01 02:28:39;;;;;;;14.43;8.67;;;;;;;4.50;100.00;94967.91;7398418;19;20381;-91
2024/01/01 02:31:21;;;;;;;12.83;8.70;;;;;;;3.76;100.00;94866.88;7398397;19;20467;-90
2024/01/01 02:34:02;;;;;;;8.80;6.27;;;;;;;4.58;100.00;94982.81;7398451;19;20365;-90
2024/01/01 02:36:47;;;;;;;10.10;7.37;;;;;;;3.99;100.00;94908.47;7394069;19;20840;-90
2024/01/01 02:39:28;;;;;;;10.80;7.57;;;;;;;4.56;100.00;95000.50;7398598;19;20834;-90
2024/01/01 02:42:09;;;;;;;10.77;6.60;;;;;;;3.86;100.00;94884.09;7398007;19;20411;-90
2024/01/01 02:44:50;;;;;;;13.07;8.50;;;;;;;4.79;100.00;95025.50;7399725;19;20393;-90
2024/01/01 02:47:31;;;;;;;11.40;8.30;;;;;;;4.33;100.00;94968.50;7398650;19;20428;-90
2024/01/01 02:50:15;;;;;;;8.30;7.10;;;;;;;3.76;100.00;94892.81;7396645;19;20869;-90
2024/01/01 02:52:56;;;;;;;11.70;8.57;;;;;;;3.54;100.00;94900.50;7396989;19;20416;-87
2024/01/01 02:55:37;;;;;;;14.90;9.83;;;;;;;3.59;100.00;94918.59;7397783;19;20953;-90
2024/01/01 02:58:19;;;;;;;9.60;6.10;;;;;;;3.35;100.00;94900.59;7398124;19;20373;-90
2024/01/01 03:01:00;;;;;;;10.67;8.40;;;;;;;3.44;100.00;94905.91;7397819;19;20869;-90
2024/01/01 03:03:42;;;;;;;10.37;6.83;;;;;;;4.03;100.00;94971.72;7398168;19;20438;-90
2024/01/01 03:06:23;;;;;;;10.37;7.80;;;;;;;4.15;100.00;95000.56;7397966;19;20448;-90
2024/01/01 03:09:04;;;;;;;10.40;7.37;;;;;;;3.74;100.00;94909.75;7396910;19;20729;-90
2024/01/01 03:11:46;;;;;;;14.67;11.20;;;;;;;3.71;100.00;94913.69;7399097;19;20396;-91
2024/01/01 03:14:27;;;;;;;10.87;8.80;;;;;;;3.52;100.00;94887.84;7397697;19;20392;-90
2024/01/01 03:17:08;;;;;;;14.43;7.80;;;;;;;4.47;100.00;94989.25;7398677;19;20392;-90
2024/01/01 03:19:50;;;;;;;10.13;7.47;;;;;;;4.44;100.00;94967.25;7397960;19;20389;-91
2024/01/01 03:22:31;;;;;;;8.73;6.73;;;;;;;3.80;100.00;94888.59;7396458;19;20408;-90
2024/01/01 03:25:12;;;;;;;9.07;6.03;;;;;;;4.20;100.00;94964.09;7395299;19;20442;-90
2024/01/01 03:27:55;;;;;;;12.53;6.53;;;;;;;3.60;100.00;94861.22;7398926;19;20377;-90
2024/01/01 03:30:36;;;;;;;7.33;6.10;;;;;;;4.97;100.00;95012.63;7395311;19;20393;-90
2024/01/01 03:33:18;;;;;;;10.20;6.60;;;;;;;5.07;100.00;95020.22;7395942;19;20615;-90
2024/01/01 03:35:59;;;;;;;10.33;6.50;;;;;;;5.07;100.00;95023.56;7396579;19;20404;-90
2024/01/01 03:38:41;;;;;;;10.97;7.10;;;;;;;4.50;100.00;94931.56;7396689;19;20376;-90
2024/01/01 03:41:26;;;;;;;7.60;6.17;;;;;;;4.45;100.00;94931.66;7396268;19;20440;-90
2024/01/01 03:44:10;;;;;;;10.50;6.17;;;;;;;4.67;100.00;94977.69;7396409;19;20380;-88
2024/01/01 03:46:51;;;;;;;6.33;4.97;;;;;;;4.69;100.00;94984.13;7397493;19;20380;-89
2024/01/01 03:49:32;;;;;;;6.10;5.40;;;;;;;4.30;100.00;94932.75;7402576;19;20949;-89
2024/01/01 03:52:14;;;;;;;8.87;5.70;;;;;;;4.36;100.00;94920.41;7403017;19;20420;-89
2024/01/01 03:54:55;;;;;;;6.67;6.07;;;;;;;4.47;100.00;94958.09;7404614;19;20438;-89
2024/01/01 03:57:36;;;;;;;7.63;6.50;;;;;;;3.98;100.00;94883.59;7404524;19;20464;-88
2024/01/01 04:00:17;;;;;;;6.30;5.00;;;;;;;4.97;100.00;95028.22;7404789;19;20453;-88
2024/01/01 04:02:58;;;;;;;6.90;5.43;;;;;;;5.03;100.00;95014.03;7402679;19;20416;-89
2024/01/01 04:05:40;;;;;;;8.47;5.20;;;;;;;4.92;100.00;95002.34;7404173;19;20376;-88
2024/01/01 04:08:21;;;;;;;8.50;5.50;;;;;;;4.57;100.00;94957.88;7404057;19;20749;-88
2024/01/01 04:11:02;;;;;;;14.50;5.20;;;;;;;5.03;100.00;95008.84;7404663;19;20409;-89
2024/01/01 04:13:43;;;;;;;7.97;5.00;;;;;;;5.15;100.00;95034.31;7404897;19;20356;-88
2024/01/01 04:16:24;;;;;;;9.03;5.57;;;;;;;4.30;100.00;94904.19;7404339;19;20395;-91
2024/01/01 04:19:05;;;;;;;12.07;6.90;;;;;;;4.74;100.00;94949.44;7403414;19;20391;-89
2024/01/01 04:21:47;;;;;;;6.27;4.57;;;;;;;4.93;100.00;94980.50;7402958;19;20367;-89
2024/01/01 04:24:28;;;;;;;5.40;4.17;;;;;;;4.86;100.00;94965.28;7401319;19;20423;-89
2024/01/01 04:27:09;;;;;;;8.10;5.53;;;;;;;5.04;100.00;94985.16;7403110;19;20702;-88
2024/01/01 04:29:50;;;;;;;7.07;5.03;;;;;;;4.53;100.00;94915.38;7401324;19;20866;-88
2024/01/01 04:32:31;;;;;;;9.00;5.70;;;;;;;4.81;100.00;94954.25;7401959;19;20421;-89
2024/01/01 04:35:12;;;;;;;7.53;4.63;;;;;;;5.05;100.00;94971.09;7402700;19;20417;-88
2024/01/01 04:37:54;;;;;;;8.23;5.03;;;;;;;5.14;100.00;94985.97;7402919;19;20381;-88
2024/01/01 04:40:35;;;;;;;5.63;3.93;;;;;;;5.19;100.00;94991.09;7402701;19;20686;-88
2024/01/01 04:43:16;;;;;;;9.63;5.27;;;;;;;4.77;100.00;94928.09;7400906;19;20411;-89
2024/01/01 04:45:57;;;;;;;9.43;5.73;;;;;;;4.98;100.00;94947.34;7402590;19;20376;-88
2024/01/01 04:48:38;;;;;;;6.57;4.60;;;;;;;5.95;100.00;95085.50;7402070;19;20402;-88
2024/01/01 04:51:20;;;;;;;6.70;5.40;;;;;;;4.85;100.00;94921.41;7401514;19;20432;-89
2024/01/01 04:54:01;;;;;;;8.10;4.70;;;;;;;5.14;100.00;94954.78;7402408;19;20369;-89
2024/01/01 04:56:42;;;;;;;8.50;5.43;;;;;;;5.48;100.00;95007.03;7402710;19;20440;-89
2024/01/01 04:59:23;;;;;;;12.97;5.80;;;;;;;5.05;100.00;94939.13;7399896;19;20389;-88
2024/01/01 05:02:04;;;;;;;9.33;5.57;;;;;;;4.81;100.00;94902.28;7401301;19;20488;-89
2024/01/01 05:04:46;;;;;;;8.00;5.30;;;;;;;4.52;100.00;94855.94;7401901;19;20372;-88
2024/01/01 05:07:27;;;;;;;11.40;6.60;;;;;;;5.13;100.00;94951.41;7425638;19;20373;-87
2024/01/01 05:10:09;;;;;;;7.63;5.70;;;;;;;5.00;100.00;94934.81;7415169;19;20402;-89
2024/01/01 05:12:50;;;;;;;8.57;6.20;;;;;;;5.30;100.00;94968.94;7421891;19;20424;-86
2024/01/01 05:15:31;;;;;;;6.40;5.60;;;;;;;5.48;100.00;94988.81;7432659;19;20372;-87
2024/01/01 05:18:12;;;;;;;8.17;6.60;;;;;;;4.90;100.00;94901.28;7432493;19;20425;-87
2024/01/01 05:20:54;;;;;;;10.60;6.27;;;;;;;5.39;100.00;94991.34;7430255;19;20382;-89
2024/01/01 05:23:35;;;;;;;7.33;5.70;;;;;;;4.97;100.00;94925.00;7399146;19;20969;-89
2024/01/01 05:26:16;;;;;;;10.70;5.77;;;;;;;4.74;100.00;94908.63;7401537;19;20369;-89
2024/01/01 05:28:57;;;;;;;7.80;5.80;;;;;;;4.94;100.00;94920.41;7402003;19;20369;-89
2024/01/01 05:31:38;;;;;;;8.47;5.63;;;;;;;4.51;100.00;94867.38;7400686;19;20376;-88
2024/01/01 05:34:20;;;;;;;9.70;6.70;;;;;;;5.74;100.00;95032.41;7401628;19;20357;-89
2024/01/01 05:37:01;;;;;;;15.60;7.17;;;;;;;5.88;100.00;95061.75;7400674;19;20373;-88
2024/01/01 05:39:42;;;;;;;12.87;6.37;;;;;;;5.55;100.00;95017.75;7401172;19;20397;-88
2024/01/01 05:42:23;;;;;;;9.67;5.50;;;;;;;5.35;100.00;94995.63;7399614;19;20423;-89
2024/01/01 05:45:05;;;;;;;11.37;6.60;;;;;;;5.12;100.00;94960.28;7407658;19;20365;-87
2024/01/01 05:47:46;;;;;;;10.73;5.80;;;;;;;4.81;100.00;94923.84;7402306;19;20394;-87
2024/01/01 05:50:28;;;;;;;9.20;5.90;;;;;;;5.37;100.00;95003.13;7398648;19;20373;-88
2024/01/01 05:53:09;;;;;;;9.97;6.30;;;;;;;5.15;100.00;94961.50;7400516;19;20448;-88
2024/01/01 05:55:50;;;;;;;9.23;6.30;;;;;;;5.97;100.00;95102.38;7400476;19;20376;-89
2024/01/01 05:58:31;;;;;;;6.33;5.13;;;;;;;5.25;100.00;94977.66;7400439;19;20390;-88
2024/01/01 06:01:12;;;;;;;7.60;6.20;;;;;;;5.24;100.00;94993.53;7399891;19;20377;-89
2024/01/01 06:03:54;;;;;;;8.77;5.30;;;;;;;5.67;100.00;95066.66;7399870;19;20381;-88
2024/01/01 06:06:35;;;;;;;10.90;5.60;;;;;;;4.60;100.00;94905.34;7399621;19;20910;-89
2024/01/01 06:09:16;;;;;;;10.87;6.00;;;;;;;5.50;100.00;95041.31;7401136;19;20373;-89
2024/01/01 06:11:58;;;;;;;9.33;5.27;;;;;;;5.10;100.00;94978.00;7400652;19;20698;-88
2024/01/01 06:14:39;;;;;;;7.33;5.53;;;;;;;4.96;100.00;94951.31;7400095;19;20369;-89
2024/01/01 06:17:20;;;;;;;7.67;6.10;;;;;;;5.92;100.00;95110.31;7399419;19;20376;-89
2024/01/01 06:20:01;;;;;;;8.07;5.90;;;;;;;5.56;100.00;95058.31;7399379;19;20381;-89
2024/01/01 06:22:43;;;;;;;8.37;5.70;;;;;;;5.71;100.00;95070.22;7398236;19;20416;-89
2024/01/01 06:25:24;;;;;;;9.00;6.60;;;;;;;5.08;100.00;94991.31;7399936;19;20479;-89
2024/01/01 06:28:06;;;;;;;8.60;5.70;;;;;;;5.30;100.00;95034.75;7398895;19;20413;-89
2024/01/01 06:30:47;;;;;;;9.30;5.33;;;;;;;5.25;100.00;95019.25;7399175;19;20381;-89
2024/01/01 06:33:29;;;;;;;7.57;5.03;;;;;;;5.45;100.00;95044.03;7396905;19;20388;-89
2024/01/01 06:36:10;;;;;;;10.43;6.70;;;;;;;5.88;100.00;95113.81;7399003;19;20383;-89
2024/01/01 06:38:52;;;;;;;10.43;5.67;;;;;;;5.59;100.00;95067.41;7398817;19;20449;-89
2024/01/01 06:41:33;;;;;;;9.27;5.10;;;;;;;4.69;100.00;94931.38;7398958;19;20380;-89
2024/01/01 06:44:14;;;;;;;9.60;6.13;;;;;;;5.02;100.00;95004.69;7399128;19;20444;-89
2024/01/01 06:46:55;;;;;;;7.00;4.20;;;;;;;5.06;100.00;94997.88;7398268;19;20388;-89
2024/01/01 06:49:36;;;;;;;9.83;4.63;;;;;;;4.72;100.00;94941.94;7398307;19;20383;-89
2024/01/01 06:52:18;;;;;;;7.63;5.83;;;;;;;5.00;100.00;94999.03;7397943;19;20376;-89
2024/01/01 06:54:59;;;;;;;12.80;6.20;;;;;;;6.13;100.00;95182.75;7398608;19;20385;-89
2024/01/01 06:57:40;;;;;;;9.03;5.90;;;;;;;4.47;100.00;94940.69;7398423;19;20394;-88
2024/01/01 07:00:22;;;;;;;7.67;4.47;;;;;;;5.49;100.00;95109.25;7398159;19;20874;-89
2024/01/01 07:03:03;;;;;;;8.43;5.73;;;;;;;5.36;100.00;95084.81;7396654;19;20433;-89
2024/01/01 07:05:44;;;;;;;14.77;5.03;;;;;;;5.52;100.00;95108.66;7398543;19;20435;-89
2024/01/01 07:08:25;;;;;;;8.10;6.50;;;;;;;4.82;100.00;95002.56;7397678;19;20381;-89
2024/01/01 07:11:07;;;;;;;8.53;5.60;;;;;;;5.03;100.00;95050.44;7398122;19;20381;-89
2024/01/01 07:13:48;;;;;;;15.27;7.17;;;;;;;5.11;100.00;95057.56;7397705;19;20456;-89
2024/01/01 07:16:29;;;;;;;9.50;7.53;;;;;;;4.73;100.00;95005.84;7397990;19;20364;-89
2024/01/01 07:19:10;;;;;;;10.30;6.47;;;;;;;5.05;100.00;95046.50;7397578;19;20372;-89
2024/01/01 07:21:51;;;;;;;13.13;7.47;;;;;;;5.16;100.00;95083.44;7396023;19;20452;-89
2024/01/01 07:24:32;;;;;;;7.53;5.60;;;;;;;4.81;100.00;95032.22;7396025;19;20451;-89
2024/01/01 07:27:13;;;;;;;9.77;6.20;;;;;;;5.16;100.00;95082.66;7397569;19;20388;-89
2024/01/01 07:29:55;;;;;;;8.47;5.60;;;;;;;4.51;100.00;94979.06;7396751;19;20377;-89
2024/01/01 07:32:36;;;;;;;7.53;5.70;;;;;;;5.58;100.00;95155.09;7396022;19;20505;-89
2024/01/01 07:35:18;;;;;;;10.47;6.13;;;;;;;4.96;100.00;95074.25;7397464;19;20414;-89
2024/01/01 07:38:00;;;;;;;9.47;5.60;;;;;;;5.81;100.00;95178.53;7397009;19;20421;-89
2024/01/01 07:40:41;;;;;;;8.37;5.30;;;;;;;5.28;100.00;95112.28;7396961;19;20377;-88
2024/01/01 07:43:23;;;;;;;8.23;4.70;;;;;;;5.22;100.00;95099.72;7395507;19;20409;-89
2024/01/01 07:46:04;;;;;;;6.70;4.57;;;;;;;5.13;100.00;95076.22;7397751;19;20389;-89
2024/01/01 07:48:45;;;;;;;8.73;4.43;;;;;;;4.61;100.00;94984.81;7396985;19;20428;-89
2024/01/01 07:51:26;;;;;;;6.43;4.60;;;;;;;5.63;100.00;95139.38;7397266;19;20384;-89
2024/01/01 07:54:08;;;;;;;8.23;5.53;;;;;;;4.93;100.00;95033.25;7396771;19;20377;-89
2024/01/01 07:56:49;;;;;;;8.70;6.37;;;;;;;5.77;100.00;95138.53;7397348;19;20675;-88
2024/01/01 07:59:30;;;;;;;8.50;5.30;;;;;;;5.80;100.00;95127.53;7396779;19;20792;-89
2024/01/01 08:02:12;;;;;;;9.83;7.40;;;;;;;4.70;100.00;94962.28;7396155;19;20472;-89
2024/01/01 08:04:53;;;;;;;8.30;6.37;;;;;;;5.14;100.00;95030.19;7396613;19;20404;-89
2024/01/01 08:07:34;;;;;;;6.47;4.30;;;;;;;5.61;100.00;95101.69;7396646;19;20465;-89
2024/01/01 08:10:16;;;;;;;6.23;5.63;;;;;;;6.31;100.00;95212.28;7402469;19;20846;-88
2024/01/01 08:12:58;;;;;;;6.93;4.70;;;;;;;6.34;100.00;95199.41;7394961;19;20405;-89
2024/01/01 08:15:39;;;;;;;5.33;4.40;;;;;;;4.93;100.00;94993.50;7396156;19;20440;-89
2024/01/01 08:18:20;;;;;;;7.77;5.90;;;;;;;5.57;100.00;95088.50;7395820;19;20410;-89
2024/01/01 08:21:01;;;;;;;7.40;5.47;;;;;;;5.14;100.00;95022.38;7396497;19;20385;-89
2024/01/01 08:23:42;;;;;;;5.97;5.13;;;;;;;5.13;100.00;95023.44;7395338;19;20407;-89
2024/01/01 08:26:23;;;;;;;10.10;4.73;;;;;;;5.29;100.00;95055.84;7396212;19;20360;-88
2024/01/01 08:29:05;;;;;;;8.60;6.70;;;;;;;5.65;100.00;95113.81;7395759;19;20861;-89
2024/01/01 08:31:46;;;;;;;9.30;4.63;;;;;;;5.78;100.00;95119.25;7396083;19;20412;-89
2024/01/01 08:34:28;;;;;;;7.23;4.40;;;;;;;5.87;100.00;95136.47;7398827;19;20452;-89
2024/01/01 08:37:09;;;;;;;5.63;4.40;;;;;;;5.53;100.00;95082.34;7405042;19;20357;-89
2024/01/01 08:39:51;;;;;;;10.73;7.77;;;;;;;5.25;100.00;95050.47;7402784;19;20475;-89
2024/01/01 08:42:32;;;;;;;6.40;3.70;;;;;;;6.05;100.00;95163.38;7402240;19;20420;-89
2024/01/01 08:45:13;;;;;;;4.47;4.07;;;;;;;6.07;100.00;95156.03;7402938;19;20405;-89
2024/01/01 08:47:54;;;;;;;5.97;3.63;;;;;;;6.30;100.00;95195.09;7403174;19;20368;-89
2024/01/01 08:50:37;;;;;;;6.63;3.70;;;;;;;5.98;100.00;95139.63;7400751;19;20401;-89
2024/01/01 08:53:18;;;;;;;5.83;3.60;;;;;;;6.10;100.00;95129.41;7400968;19;20416;-90
2024/01/01 08:55:59;;;;;;;7.20;3.40;;;;;;;6.00;100.00;95127.06;7403175;19;20389;-89
2024/01/01 08:58:40;;;;;;;5.73;2.40;;;;;;;5.82;100.00;95086.34;7404253;19;20369;-89
2024/01/01 09:01:22;;;;;;;21.53;7.37;;;;;;;5.27;100.00;94987.75;7402824;19;20372;-89
2024/01/01 09:04:04;;;;;;;17.57;9.40;;;;;;;5.80;100.00;95067.66;7402932;19;20376;-88
2024/01/01 09:06:46;;;;;;;8.77;6.50;;;;;;;5.35;100.00;94993.00;7402139;19;20380;-89
2024/01/01 09:09:27;;;;;;;7.43;3.93;;;;;;;5.92;100.00;95078.28;7401852;19;20376;-89
2024/01/01 09:12:08;;;;;;;3.97;2.70;;;;;;;6.17;100.00;95114.13;7401473;19;20432;-88
2024/01/01 09:14:50;;;;;;;4.23;2.47;;;;;;;7.18;100.00;95253.34;7402243;19;20357;-88
2024/01/01 09:17:31;;;;;;;4.60;3.73;;;;;;;6.18;100.00;95107.06;7403412;19;20432;-88
2024/01/01 09:20:12;;;;;;;12.13;2.20;;;;;;;5.83;100.00;95067.81;7401816;19;20888;-89
2024/01/01 09:22:56;;;;;;;7.33;3.17;;;;;;;6.05;100.00;95110.53;7400203;19;20726;-89
2024/01/01 09:25:42;;;;;;;6.87;3.67;;;;;;;6.54;100.00;95185.88;7402339;19;20396;-90
2024/01/01 09:28:23;;;;;;;4.73;2.53;;;;;;;5.77;100.00;95056.00;7401939;19;20452;-89
2024/01/01 09:31:05;;;;;;;13.00;8.13;;;;;;;5.81;100.00;95069.97;7399389;19;20392;-89
2024/01/01 09:33:46;;;;;;;6.57;3.30;;;;;;;5.59;100.00;95044.75;7402082;19;20376;-89
2024/01/01 09:36:29;;;;;;;8.40;2.90;;;;;;;6.40;100.00;95156.53;7401458;19;20376;-89
2024/01/01 09:39:10;;;;;;;3.43;2.53;;;;;;;6.33;100.00;95134.56;7401305;19;20383;-88
2024/01/01 09:41:52;;;;;;;3.40;1.83;;;;;;;6.14;100.00;95085.31;7400483;19;20700;-89
2024/01/01 09:44:33;;;;;;;4.83;2.30;;;;;;;6.22;100.00;95064.50;7400598;19;20387;-89
2024/01/01 09:47:15;;;;;;;5.63;1.73;;;;;;;6.32;100.00;95079.09;7401479;19;20372;-89
2024/01/01 09:49:56;;;;;;;9.60;2.03;;;;;;;6.91;100.00;95149.22;7399732;19;20408;-88
2024/01/01 09:52:38;;;;;;;4.80;2.60;;;;;;;6.98;100.00;95152.16;7399828;19;20405;-89
2024/01/01 09:55:19;;;;;;;8.17;2.03;;;;;;;6.91;100.00;95129.13;7400973;19;20838;-89
2024/01/01 09:58:00;;;;;;;2.80;1.80;;;;;;;6.64;100.00;95103.25;7400397;19;20455;-89
2024/01/01 10:00:41;;;;;;;2.40;1.50;;;;;;;6.68;100.00;95104.22;7400721;19;20433;-89
2024/01/01 10:03:22;;;;;;;5.80;2.07;;;;;;;6.31;100.00;95051.50;7398820;19;20476;-89
2024/01/01 10:06:08;;;;;;;4.77;2.73;;;;;;;7.59;100.00;95253.00;7400155;19;20763;-89
2024/01/01 10:08:49;;;;;;;6.23;3.73;;;;;;;6.62;100.00;95116.59;7400320;19;20369;-89
2024/01/01 10:11:31;;;;;;;7.57;2.37;;;;;;;7.06;100.00;95173.03;7399730;19;20376;-88
2024/01/01 10:14:12;;;;;;;7.73;3.50;;;;;;;6.26;100.00;95055.03;7405961;19;20456;-88
2024/01/01 10:17:10;;;;;;;7.80;3.03;;;;;;;6.17;100.00;95033.38;7401529;19;20376;-90
2024/01/01 10:19:52;;;;;;;8.50;2.73;;;;;;;7.81;100.00;95251.31;7405821;19;20388;-89
2024/01/01 10:22:33;;;;;;;6.40;2.20;;;;;;;7.35;100.00;95176.94;7399818;19;20407;-90
2024/01/01 10:25:16;;;;;;;7.13;2.40;;;;;;;6.93;100.00;95116.56;7401552;19;20428;-90
2024/01/01 10:28:01;;;;;;;10.60;3.03;;;;;;;6.65;100.00;95063.88;7403238;19;20400;-89
2024/01/01 10:30:47;;;;;;;6.30;3.23;;;;;;;7.94;100.00;95242.56;7401719;19;20372;-90
2024/01/01 10:33:29;;;;;;;3.00;1.60;;;;;;;7.88;100.00;95249.81;7399693;19;20901;-90
2024/01/01 10:36:14;;;;;;;2.80;2.00;;;;;;;7.07;100.00;95122.41;7403463;19;20406;-89
2024/01/01 10:38:56;;;;;;;7.83;2.50;;;;;;;7.07;100.00;95127.63;7415376;19;20387;-90
2024/01/01 10:41:39;;;;;;;4.30;2.70;;;;;;;6.96;100.00;95089.84;7428743;19;20413;-88
2024/01/01 10:44:20;;;;;;;12.00;3.57;;;;;;;7.21;100.00;95118.91;7429357;19;20388;-90
2024/01/01 10:47:09;;;;;;;4.73;2.33;;;;;;;7.64;100.00;95171.13;7429748;19;20365;-88
2024/01/01 10:50:15;;;;;;;4.17;2.77;;;;;;;7.60;100.00;95181.41;7428539;19;20369;-88
2024/01/01 10:53:11;;;;;;;3.17;2.30;;;;;;;7.61;100.00;95182.19;7428197;19;20408;-88
2024/01/01 10:56:17;;;;;;;6.63;2.10;;;;;;;8.06;100.00;95243.50;7405998;19;20409;-88
2024/01/01 10:59:19;;;;;;;5.30;2.07;;;;;;;8.12;100.00;95267.66;7401627;19;20452;-89
2024/01/01 11:02:01;;;;;;;10.30;2.90;;;;;;;7.44;100.00;95157.63;7400689;19;20404;-89
2024/01/01 11:04:42;;;;;;;2.60;1.60;;;;;;;7.44;100.00;95162.06;7401357;19;20391;-90
2024/01/01 11:07:54;;;;;;;10.00;4.90;;;;;;;8.15;100.00;95259.19;7400062;19;20373;-90
2024/01/01 11:10:44;;;;;;;4.40;2.30;;;;;;;8.05;100.00;95256.88;7398343;19;20365;-89
2024/01/01 11:13:25;;;;;;;9.90;2.60;;;;;;;8.14;100.00;95268.09;7398558;19;20476;-90
2024/01/01 11:16:06;;;;;;;6.23;2.53;;;;;;;7.31;100.00;95150.69;7398769;19;20380;-89
2024/01/01 11:18:48;;;;;;;6.50;2.03;;;;;;;7.32;100.00;95152.22;7398474;19;20679;-89
2024/01/01 11:21:32;;;;;;;12.93;2.77;;;;;;;6.86;100.00;95093.50;7397730;19;20364;-89
2024/01/01 11:24:42;;;;;;;9.20;2.93;;;;;;;8.15;100.00;95263.66;7397606;19;20412;-89
2024/01/01 11:27:24;;;;;;;3.10;1.80;;;;;;;7.02;100.00;95099.06;7397486;19;20376;-89
2024/01/01 11:30:07;;;;;;;3.90;2.90;;;;;;;7.37;100.00;95154.69;7396487;19;20384;-89
2024/01/01 11:32:48;;;;;;;10.87;6.67;;;;;;;7.28;100.00;95134.84;7396896;19;20405;-90
2024/01/01 11:35:29;;;;;;;15.10;8.37;;;;;;;7.13;100.00;95113.34;7397995;19;20377;-90
2024/01/01 11:38:14;;;;;;;5.77;1.80;;;;;;;7.38;100.00;95152.84;7398068;19;20448;-90
2024/01/01 11:40:56;;;;;;;9.13;2.80;;;;;;;7.27;100.00;95143.75;7397255;19;20889;-89
2024/01/01 11:43:37;;;;;;;3.90;2.83;;;;;;;7.31;100.00;95148.09;7395991;19;20388;-90
2024/01/01 11:46:26;;;;;;;8.17;2.80;;;;;;;8.09;100.00;95260.41;7397896;19;20368;-90
2024/01/01 11:49:09;;;;;;;4.67;1.80;;;;;;;7.34;100.00;95149.31;7397417;19;20661;-90
2024/01/01 11:51:55;;;;;;;6.50;1.90;;;;;;;7.23;100.00;95130.56;7396843;19;20425;-90
2024/01/01 11:54:37;;;;;;;10.23;2.13;;;;;;;6.62;100.00;95027.19;7397308;19;20368;-90
2024/01/01 11:57:19;;;;;;;4.17;2.10;;;;;;;7.00;100.00;95085.56;7396923;19;20381;-90
2024/01/01 12:00:00;;;;;;;3.47;2.30;;;;;;;7.38;100.00;95135.31;7397347;19;20384;-90
2024/01/01 12:02:42;;;;;;;4.80;2.30;;;;;;;7.30;100.00;95133.47;7395652;19;20725;-90
2024/01/01 12:05:23;;;;;;;8.30;2.20;;;;;;;7.30;100.00;95124.88;7396269;19;20390;-90
2024/01/01 12:08:12;;;;;;;2.63;2.13;;;;;;;7.59;100.00;95145.94;7398021;19;20360;-90
2024/01/01 12:11:01;;;;;;;5.20;1.90;;;;;;;7.98;100.00;95238.28;7401423;19;20369;-90
2024/01/01 12:13:53;;;;;;;4.17;1.60;;;;;;;7.59;100.00;95172.06;7403263;19;20375;-90
2024/01/01 12:16:36;;;;;;;5.13;2.03;;;;;;;7.39;100.00;95141.31;7404128;19;20352;-90
2024/01/01 12:19:22;;;;;;;8.10;2.10;;;;;;;7.51;100.00;95164.22;7403666;19;20380;-90
2024/01/01 12:22:03;;;;;;;7.13;2.53;;;;;;;6.86;100.00;95075.25;7403369;19;20415;-90
2024/01/01 12:24:44;;;;;;;4.40;2.10;;;;;;;7.39;100.00;95138.72;7402075;19;20540;-90
2024/01/01 12:27:26;;;;;;;3.90;1.73;;;;;;;7.78;100.00;95204.94;7404213;19;20401;-90
2024/01/01 12:30:07;;;;;;;4.37;2.07;;;;;;;6.88;100.00;95093.97;7401942;19;20384;-89
2024/01/01 12:32:48;;;;;;;4.70;2.20;;;;;;;7.59;100.00;95202.63;7402144;19;20444;-90
2024/01/01 12:35:30;;;;;;;6.97;1.90;;;;;;;6.85;100.00;95091.22;7403823;19;20354;-89
2024/01/01 12:38:11;;;;;;;3.53;1.97;;;;;;;7.05;100.00;95118.56;7404284;19;20395;-94